createdAt,value
2017-07-25T00:00:04.395Z,0
2017-07-25T00:00:45.386Z,0
2017-07-25T00:01:26.282Z,0
2017-07-25T00:02:07.179Z,0
2017-07-25T00:02:48.572Z,0
2017-07-25T00:03:29.467Z,0
2017-07-25T00:04:10.360Z,0
2017-07-25T00:04:52.887Z,0
2017-07-25T00:05:33.882Z,0
2017-07-25T00:06:14.774Z,0
2017-07-25T00:06:55.778Z,0
2017-07-25T00:07:36.667Z,0
2017-07-25T00:08:17.563Z,0
2017-07-25T00:08:58.560Z,0
2017-07-25T00:09:39.351Z,0
2017-07-25T00:10:20.242Z,0
2017-07-25T00:11:01.024Z,0
2017-07-25T00:11:41.912Z,0
2017-07-25T00:12:22.899Z,0
2017-07-25T00:13:03.996Z,0
2017-07-25T00:13:44.998Z,0
2017-07-25T00:14:26.595Z,0
2017-07-25T00:15:07.405Z,0
2017-07-25T00:15:49.195Z,0
2017-07-25T00:16:30.309Z,0
2017-07-25T00:17:11.294Z,0
2017-07-25T00:17:52.189Z,0
2017-07-25T00:18:33.390Z,0
2017-07-25T00:19:14.374Z,0
2017-07-25T00:19:55.174Z,0
2017-07-25T00:20:36.056Z,0
2017-07-25T00:21:17.054Z,0
2017-07-25T00:21:58.046Z,0
2017-07-25T00:22:38.940Z,0
2017-07-25T00:23:19.938Z,0
2017-07-25T00:24:01.126Z,0
2017-07-25T00:24:42.027Z,0
2017-07-25T00:25:22.812Z,0
2017-07-25T00:26:03.721Z,0
2017-07-25T00:26:44.418Z,0
2017-07-25T00:27:25.312Z,0
2017-07-25T00:28:06.110Z,0
2017-07-25T00:28:47.095Z,0
2017-07-25T00:29:27.886Z,0
2017-07-25T00:30:08.779Z,0
2017-07-25T00:30:50.571Z,0
2017-07-25T00:31:31.360Z,0
2017-07-25T00:32:12.257Z,0
2017-07-25T00:32:54.318Z,0
2017-07-25T00:33:35.920Z,0
2017-07-25T00:34:16.714Z,0
2017-07-25T00:34:57.712Z,0
2017-07-25T00:35:38.708Z,0
2017-07-25T00:36:19.692Z,0
2017-07-25T00:37:00.599Z,0
2017-07-25T00:37:41.487Z,0
2017-07-25T00:38:22.475Z,0
2017-07-25T00:39:03.566Z,0
2017-07-25T00:39:44.849Z,0
2017-07-25T00:40:25.742Z,0
2017-07-25T00:41:06.634Z,0
2017-07-25T00:41:47.834Z,0
2017-07-25T00:42:28.956Z,0
2017-07-25T00:43:09.836Z,0
2017-07-25T00:43:50.929Z,0
2017-07-25T00:44:31.817Z,0
2017-07-25T00:45:12.943Z,0
2017-07-25T00:45:54.021Z,0
2017-07-25T00:46:36.433Z,0
2017-07-25T00:47:17.617Z,0
2017-07-25T00:47:58.507Z,0
2017-07-25T00:48:39.299Z,0
2017-07-25T00:49:20.210Z,0
2017-07-25T00:50:01.198Z,0
2017-07-25T00:50:42.193Z,0
2017-07-25T00:51:23.086Z,0
2017-07-25T00:52:03.973Z,0
2017-07-25T00:52:45.076Z,0
2017-07-25T00:53:26.088Z,0
2017-07-25T00:54:12.986Z,0
2017-07-25T00:54:53.925Z,0
2017-07-25T00:55:34.718Z,0
2017-07-25T00:56:15.507Z,0
2017-07-25T00:56:56.500Z,0
2017-07-25T00:57:37.292Z,0
2017-07-25T00:58:18.098Z,0
2017-07-25T00:58:58.979Z,0
2017-07-25T00:59:39.774Z,0
2017-07-25T01:00:20.671Z,0
2017-07-25T01:01:01.571Z,0
2017-07-25T01:01:42.467Z,0
2017-07-25T01:02:23.258Z,0
2017-07-25T01:03:04.157Z,0
2017-07-25T01:03:45.048Z,0
2017-07-25T01:04:25.939Z,0
2017-07-25T01:05:07.034Z,0
2017-07-25T01:05:48.047Z,0
2017-07-25T01:06:29.031Z,0
2017-07-25T01:07:10.034Z,0
2017-07-25T01:07:50.920Z,0
2017-07-25T01:08:31.804Z,0
2017-07-25T01:09:18.608Z,0
2017-07-25T01:09:59.599Z,0
2017-07-25T01:10:40.490Z,0
2017-07-25T01:11:21.383Z,0
2017-07-25T01:12:02.171Z,0
2017-07-25T01:12:48.182Z,0
2017-07-25T01:13:28.976Z,0
2017-07-25T01:14:09.873Z,0
2017-07-25T01:14:52.377Z,0
2017-07-25T01:15:33.381Z,0
2017-07-25T01:16:14.662Z,0
2017-07-25T01:16:55.753Z,0
2017-07-25T01:17:36.851Z,0
2017-07-25T01:18:17.839Z,0
2017-07-25T01:18:58.635Z,0
2017-07-25T01:19:39.428Z,0
2017-07-25T01:20:20.417Z,0
2017-07-25T01:21:02.221Z,0
2017-07-25T01:21:43.395Z,0
2017-07-25T01:22:24.492Z,0
2017-07-25T01:23:08.985Z,0
2017-07-25T01:23:49.971Z,0
2017-07-25T01:24:30.952Z,0
2017-07-25T01:25:12.049Z,0
2017-07-25T01:25:53.055Z,0
2017-07-25T01:26:33.847Z,0
2017-07-25T01:27:15.136Z,0
2017-07-25T01:27:56.231Z,0
2017-07-25T01:28:37.040Z,0
2017-07-25T01:29:18.011Z,0
2017-07-25T01:29:58.899Z,0
2017-07-25T01:30:40.593Z,0
2017-07-25T01:31:21.671Z,0
2017-07-25T01:32:02.758Z,0
2017-07-25T01:32:43.741Z,0
2017-07-25T01:33:24.627Z,0
2017-07-25T01:34:05.508Z,0
2017-07-25T01:34:47.597Z,0
2017-07-25T01:35:28.593Z,0
2017-07-25T01:36:09.474Z,0
2017-07-25T01:36:50.270Z,0
2017-07-25T01:37:31.448Z,0
2017-07-25T01:38:12.432Z,0
2017-07-25T01:38:53.328Z,0
2017-07-25T01:39:34.213Z,0
2017-07-25T01:40:15.297Z,0
2017-07-25T01:40:58.789Z,0
2017-07-25T01:41:39.879Z,0
2017-07-25T01:42:23.860Z,0
2017-07-25T01:43:05.648Z,0
2017-07-25T01:43:46.529Z,0
2017-07-25T01:44:27.224Z,0
2017-07-25T01:45:08.114Z,0
2017-07-25T01:45:52.715Z,0
2017-07-25T01:46:33.599Z,0
2017-07-25T01:47:14.385Z,0
2017-07-25T01:47:55.370Z,0
2017-07-25T01:48:36.254Z,0
2017-07-25T01:49:17.245Z,0
2017-07-25T01:49:58.227Z,0
2017-07-25T01:50:39.510Z,0
2017-07-25T01:51:20.503Z,0
2017-07-25T01:52:01.478Z,0
2017-07-25T01:52:42.378Z,0
2017-07-25T01:53:23.359Z,0
2017-07-25T01:54:04.241Z,0
2017-07-25T01:54:47.244Z,0
2017-07-25T01:55:28.339Z,0
2017-07-25T01:56:10.231Z,0
2017-07-25T01:56:51.208Z,0
2017-07-25T01:57:32.998Z,0
2017-07-25T01:58:13.783Z,0
2017-07-25T01:58:55.570Z,0
2017-07-25T01:59:37.469Z,0
2017-07-25T02:00:18.252Z,0
2017-07-25T02:01:00.941Z,0
2017-07-25T02:01:42.032Z,0
2017-07-25T02:02:22.827Z,0
2017-07-25T02:03:03.807Z,0
2017-07-25T02:03:44.787Z,0
2017-07-25T02:04:25.788Z,0
2017-07-25T02:05:06.777Z,0
2017-07-25T02:05:48.967Z,0
2017-07-25T02:06:30.049Z,0
2017-07-25T02:07:10.833Z,0
2017-07-25T02:07:51.816Z,0
2017-07-25T02:08:32.702Z,0
2017-07-25T02:09:13.503Z,0
2017-07-25T02:09:54.281Z,0
2017-07-25T02:10:35.171Z,0
2017-07-25T02:11:15.954Z,0
2017-07-25T02:11:56.761Z,0
2017-07-25T02:12:37.543Z,0
2017-07-25T02:13:18.531Z,0
2017-07-25T02:13:59.415Z,0
2017-07-25T02:14:40.415Z,0
2017-07-25T02:15:21.710Z,0
2017-07-25T02:16:02.807Z,0
2017-07-25T02:16:45.293Z,0
2017-07-25T02:17:26.177Z,0
2017-07-25T02:18:07.265Z,0
2017-07-25T02:18:52.655Z,0
2017-07-25T02:19:33.647Z,0
2017-07-25T02:20:14.544Z,0
2017-07-25T02:20:55.434Z,0
2017-07-25T02:21:36.234Z,0
2017-07-25T02:22:17.021Z,0
2017-07-25T02:22:58.004Z,0
2017-07-25T02:23:38.894Z,0
2017-07-25T02:24:21.883Z,0
2017-07-25T02:25:02.879Z,0
2017-07-25T02:25:43.653Z,0
2017-07-25T02:26:24.553Z,0
2017-07-25T02:27:06.131Z,0
2017-07-25T02:27:47.121Z,0
2017-07-25T02:28:28.005Z,0
2017-07-25T02:29:08.899Z,0
2017-07-25T02:29:49.784Z,0
2017-07-25T02:30:30.672Z,0
2017-07-25T02:31:12.870Z,0
2017-07-25T02:31:53.765Z,0
2017-07-25T02:32:34.676Z,0
2017-07-25T02:33:15.671Z,0
2017-07-25T02:33:57.960Z,0
2017-07-25T02:34:38.863Z,0
2017-07-25T02:35:19.649Z,0
2017-07-25T02:36:02.041Z,0
2017-07-25T02:36:42.945Z,0
2017-07-25T02:37:23.822Z,0
2017-07-25T02:38:04.617Z,0
2017-07-25T02:38:45.399Z,0
2017-07-25T02:39:26.292Z,0
2017-07-25T02:40:07.470Z,0
2017-07-25T02:40:48.660Z,0
2017-07-25T02:41:29.747Z,0
2017-07-25T02:42:10.733Z,0
2017-07-25T02:42:51.619Z,0
2017-07-25T02:43:32.808Z,0
2017-07-25T02:44:13.605Z,0
2017-07-25T02:44:54.600Z,0
2017-07-25T02:45:35.479Z,0
2017-07-25T02:46:16.556Z,0
2017-07-25T02:46:57.653Z,0
2017-07-25T02:47:38.633Z,0
2017-07-25T02:48:19.620Z,0
2017-07-25T02:49:00.712Z,0
2017-07-25T02:49:41.786Z,0
2017-07-25T02:50:23.388Z,0
2017-07-25T02:51:04.266Z,0
2017-07-25T02:51:45.054Z,0
2017-07-25T02:52:26.060Z,0
2017-07-25T02:53:07.048Z,0
2017-07-25T02:53:47.936Z,0
2017-07-25T02:54:28.815Z,0
2017-07-25T02:55:09.517Z,0
2017-07-25T02:55:50.310Z,0
2017-07-25T02:56:31.288Z,0
2017-07-25T02:57:12.271Z,0
2017-07-25T02:57:53.250Z,0
2017-07-25T02:58:34.235Z,0
2017-07-25T02:59:15.013Z,0
2017-07-25T02:59:55.893Z,0
2017-07-25T03:00:36.680Z,0
2017-07-25T03:01:17.464Z,0
2017-07-25T03:01:58.548Z,0
2017-07-25T03:02:39.434Z,0
2017-07-25T03:03:20.434Z,0
2017-07-25T03:04:01.311Z,0
2017-07-25T03:04:42.396Z,0
2017-07-25T03:05:23.279Z,0
2017-07-25T03:06:04.183Z,0
2017-07-25T03:06:45.169Z,0
2017-07-25T03:07:26.149Z,0
2017-07-25T03:08:07.441Z,0
2017-07-25T03:08:48.326Z,0
2017-07-25T03:09:29.305Z,0
2017-07-25T03:10:10.186Z,0
2017-07-25T03:10:51.176Z,0
2017-07-25T03:11:32.764Z,0
2017-07-25T03:12:13.653Z,0
2017-07-25T03:12:54.545Z,0
2017-07-25T03:13:35.428Z,0
2017-07-25T03:14:16.210Z,0
2017-07-25T03:14:57.298Z,0
2017-07-25T03:15:38.185Z,0
2017-07-25T03:16:19.069Z,0
2017-07-25T03:16:59.953Z,0
2017-07-25T03:17:40.855Z,0
2017-07-25T03:18:21.728Z,4
2017-07-25T03:19:02.617Z,4
2017-07-25T03:19:43.598Z,4
2017-07-25T03:20:24.489Z,4
2017-07-25T03:21:05.288Z,4
2017-07-25T03:21:46.063Z,0
2017-07-25T03:22:27.252Z,0
2017-07-25T03:23:08.236Z,4
2017-07-25T03:23:49.231Z,4
2017-07-25T03:24:30.112Z,4
2017-07-25T03:25:11.018Z,4
2017-07-25T03:25:51.913Z,8
2017-07-25T03:26:32.977Z,8
2017-07-25T03:27:13.961Z,4
2017-07-25T03:27:54.941Z,8
2017-07-25T03:28:35.836Z,8
2017-07-25T03:29:16.627Z,8
2017-07-25T03:29:57.420Z,8
2017-07-25T03:30:38.309Z,8
2017-07-25T03:31:19.409Z,12
2017-07-25T03:32:00.396Z,12
2017-07-25T03:32:41.381Z,12
2017-07-25T03:33:22.271Z,12
2017-07-25T03:34:03.056Z,12
2017-07-25T03:34:43.951Z,16
2017-07-25T03:35:25.041Z,16
2017-07-25T03:36:06.026Z,16
2017-07-25T03:36:46.914Z,20
2017-07-25T03:37:27.902Z,16
2017-07-25T03:38:08.794Z,20
2017-07-25T03:38:49.977Z,24
2017-07-25T03:39:31.069Z,20
2017-07-25T03:40:12.062Z,24
2017-07-25T03:40:53.060Z,28
2017-07-25T03:41:34.055Z,24
2017-07-25T03:42:15.037Z,28
2017-07-25T03:42:56.028Z,28
2017-07-25T03:43:37.009Z,32
2017-07-25T03:44:18.194Z,32
2017-07-25T03:44:59.024Z,36
2017-07-25T03:45:39.927Z,40
2017-07-25T03:46:20.913Z,40
2017-07-25T03:47:01.698Z,44
2017-07-25T03:47:42.678Z,48
2017-07-25T03:48:23.466Z,56
2017-07-25T03:49:04.537Z,56
2017-07-25T03:49:45.526Z,60
2017-07-25T03:50:26.416Z,68
2017-07-25T03:51:08.104Z,72
2017-07-25T03:51:49.014Z,76
2017-07-25T03:52:29.900Z,84
2017-07-25T03:53:10.784Z,96
2017-07-25T03:53:51.690Z,100
2017-07-25T03:54:32.579Z,112
2017-07-25T03:55:13.364Z,116
2017-07-25T03:55:54.366Z,124
2017-07-25T03:56:35.246Z,128
2017-07-25T03:57:16.327Z,128
2017-07-25T03:57:57.514Z,136
2017-07-25T03:58:38.500Z,128
2017-07-25T03:59:19.400Z,124
2017-07-25T04:00:00.279Z,116
2017-07-25T04:00:41.478Z,116
2017-07-25T04:01:22.264Z,112
2017-07-25T04:02:03.157Z,96
2017-07-25T04:02:44.038Z,96
2017-07-25T04:03:25.433Z,104
2017-07-25T04:04:06.425Z,96
2017-07-25T04:04:48.820Z,88
2017-07-25T04:05:30.592Z,68
2017-07-25T04:06:11.762Z,84
2017-07-25T04:06:52.650Z,92
2017-07-25T04:07:33.534Z,88
2017-07-25T04:08:14.318Z,92
2017-07-25T04:08:55.114Z,84
2017-07-25T04:09:37.103Z,88
2017-07-25T04:10:18.085Z,92
2017-07-25T04:10:59.172Z,100
2017-07-25T04:11:39.975Z,124
2017-07-25T04:12:20.960Z,140
2017-07-25T04:13:01.749Z,124
2017-07-25T04:13:42.638Z,100
2017-07-25T04:14:23.526Z,104
2017-07-25T04:15:04.418Z,108
2017-07-25T04:15:45.411Z,100
2017-07-25T04:16:26.201Z,92
2017-07-25T04:17:07.107Z,108
2017-07-25T04:17:47.892Z,108
2017-07-25T04:18:28.881Z,112
2017-07-25T04:19:09.971Z,112
2017-07-25T04:19:50.866Z,104
2017-07-25T04:20:31.857Z,120
2017-07-25T04:21:12.746Z,128
2017-07-25T04:21:53.837Z,144
2017-07-25T04:22:34.732Z,132
2017-07-25T04:23:15.943Z,132
2017-07-25T04:23:56.832Z,172
2017-07-25T04:24:38.323Z,192
2017-07-25T04:25:19.215Z,216
2017-07-25T04:26:00.199Z,212
2017-07-25T04:26:41.295Z,208
2017-07-25T04:27:22.185Z,240
2017-07-25T04:28:03.287Z,288
2017-07-25T04:28:43.975Z,316
2017-07-25T04:29:25.060Z,284
2017-07-25T04:30:05.961Z,284
2017-07-25T04:30:47.056Z,320
2017-07-25T04:31:27.942Z,320
2017-07-25T04:32:08.735Z,348
2017-07-25T04:32:49.625Z,328
2017-07-25T04:33:30.719Z,364
2017-07-25T04:34:11.713Z,348
2017-07-25T04:34:52.604Z,308
2017-07-25T04:35:33.496Z,248
2017-07-25T04:36:14.583Z,272
2017-07-25T04:36:55.464Z,280
2017-07-25T04:37:36.449Z,264
2017-07-25T04:38:17.443Z,272
2017-07-25T04:38:58.440Z,264
2017-07-25T04:39:39.233Z,244
2017-07-25T04:40:20.119Z,264
2017-07-25T04:41:01.100Z,316
2017-07-25T04:41:41.996Z,308
2017-07-25T04:42:23.070Z,296
2017-07-25T04:43:04.484Z,268
2017-07-25T04:43:45.388Z,272
2017-07-25T04:44:26.474Z,280
2017-07-25T04:45:07.566Z,292
2017-07-25T04:45:48.760Z,284
2017-07-25T04:46:29.648Z,308
2017-07-25T04:47:10.643Z,292
2017-07-25T04:47:51.631Z,300
2017-07-25T04:48:32.539Z,384
2017-07-25T04:49:13.523Z,464
2017-07-25T04:49:54.428Z,424
2017-07-25T04:50:35.335Z,376
2017-07-25T04:51:16.519Z,396
2017-07-25T04:51:57.609Z,432
2017-07-25T04:52:38.767Z,504
2017-07-25T04:53:19.691Z,388
2017-07-25T04:54:00.574Z,404
2017-07-25T04:54:41.460Z,420
2017-07-25T04:55:22.546Z,472
2017-07-25T04:56:03.538Z,380
2017-07-25T04:56:44.534Z,432
2017-07-25T04:57:25.616Z,412
2017-07-25T04:58:06.631Z,460
2017-07-25T04:58:47.497Z,456
2017-07-25T04:59:28.490Z,452
2017-07-25T05:00:09.376Z,424
2017-07-25T05:00:50.377Z,380
2017-07-25T05:01:31.381Z,396
2017-07-25T05:02:12.271Z,428
2017-07-25T05:02:53.064Z,476
2017-07-25T05:03:34.054Z,540
2017-07-25T05:04:15.051Z,532
2017-07-25T05:04:56.062Z,540
2017-07-25T05:05:36.956Z,596
2017-07-25T05:06:17.949Z,548
2017-07-25T05:06:58.955Z,664
2017-07-25T05:07:40.039Z,640
2017-07-25T05:08:21.021Z,596
2017-07-25T05:09:02.110Z,492
2017-07-25T05:09:43.202Z,512
2017-07-25T05:10:24.212Z,548
2017-07-25T05:11:05.206Z,500
2017-07-25T05:11:46.191Z,532
2017-07-25T05:12:27.189Z,492
2017-07-25T05:13:08.276Z,600
2017-07-25T05:13:49.091Z,596
2017-07-25T05:14:30.178Z,468
2017-07-25T05:15:11.369Z,440
2017-07-25T05:15:52.279Z,484
2017-07-25T05:16:33.174Z,620
2017-07-25T05:17:14.072Z,556
2017-07-25T05:17:55.154Z,524
2017-07-25T05:18:35.949Z,532
2017-07-25T05:19:16.736Z,592
2017-07-25T05:19:57.628Z,672
2017-07-25T05:20:38.740Z,648
2017-07-25T05:21:19.722Z,664
2017-07-25T05:22:00.731Z,736
2017-07-25T05:22:41.913Z,748
2017-07-25T05:23:23.010Z,740
2017-07-25T05:24:03.894Z,880
2017-07-25T05:24:44.883Z,760
2017-07-25T05:25:25.779Z,728
2017-07-25T05:26:06.782Z,744
2017-07-25T05:26:47.677Z,944
2017-07-25T05:27:28.681Z,992
2017-07-25T05:28:09.475Z,1012
2017-07-25T05:28:50.568Z,1060
2017-07-25T05:29:31.561Z,996
2017-07-25T05:30:12.454Z,1060
2017-07-25T05:30:53.444Z,1096
2017-07-25T05:31:34.341Z,908
2017-07-25T05:32:15.226Z,1044
2017-07-25T05:32:56.422Z,984
2017-07-25T05:33:37.216Z,960
2017-07-25T05:34:18.302Z,992
2017-07-25T05:34:59.199Z,888
2017-07-25T05:35:40.189Z,1044
2017-07-25T05:36:21.183Z,1108
2017-07-25T05:37:02.570Z,1128
2017-07-25T05:37:43.483Z,1120
2017-07-25T05:38:24.593Z,1192
2017-07-25T05:39:06.062Z,1128
2017-07-25T05:39:47.048Z,1312
2017-07-25T05:40:28.149Z,1296
2017-07-25T05:41:09.140Z,1216
2017-07-25T05:41:50.031Z,1252
2017-07-25T05:42:31.018Z,1308
2017-07-25T05:43:11.811Z,1228
2017-07-25T05:43:52.905Z,1228
2017-07-25T05:44:33.791Z,1296
2017-07-25T05:45:14.795Z,1268
2017-07-25T05:45:55.781Z,1380
2017-07-25T05:46:36.673Z,1232
2017-07-25T05:47:17.692Z,1216
2017-07-25T05:47:58.862Z,1060
2017-07-25T05:48:39.752Z,980
2017-07-25T05:49:20.740Z,984
2017-07-25T05:50:02.338Z,1012
2017-07-25T05:50:43.339Z,1360
2017-07-25T05:51:24.230Z,1584
2017-07-25T05:52:05.415Z,1556
2017-07-25T05:52:46.610Z,1588
2017-07-25T05:53:27.706Z,1536
2017-07-25T05:54:08.694Z,1644
2017-07-25T05:54:49.686Z,1640
2017-07-25T05:55:30.683Z,1716
2017-07-25T05:56:11.769Z,1764
2017-07-25T05:56:52.657Z,1620
2017-07-25T05:57:33.550Z,1584
2017-07-25T05:58:14.534Z,1540
2017-07-25T05:58:55.524Z,1416
2017-07-25T05:59:36.519Z,1384
2017-07-25T06:00:17.509Z,1400
2017-07-25T06:00:58.910Z,1420
2017-07-25T06:01:39.902Z,1448
2017-07-25T06:02:20.993Z,1412
2017-07-25T06:03:01.879Z,1300
2017-07-25T06:03:43.477Z,1220
2017-07-25T06:04:24.471Z,1184
2017-07-25T06:05:05.463Z,1212
2017-07-25T06:05:46.461Z,1248
2017-07-25T06:06:27.468Z,1304
2017-07-25T06:07:08.543Z,1288
2017-07-25T06:07:49.448Z,1352
2017-07-25T06:08:30.538Z,1448
2017-07-25T06:09:11.523Z,1520
2017-07-25T06:09:52.613Z,1512
2017-07-25T06:10:33.595Z,1440
2017-07-25T06:11:14.595Z,1344
2017-07-25T06:11:55.682Z,1276
2017-07-25T06:12:36.572Z,1240
2017-07-25T06:13:17.460Z,1236
2017-07-25T06:13:58.451Z,1300
2017-07-25T06:14:39.473Z,1392
2017-07-25T06:15:20.364Z,1428
2017-07-25T06:16:01.359Z,1392
2017-07-25T06:16:42.264Z,1340
2017-07-25T06:17:23.253Z,1364
2017-07-25T06:18:04.144Z,1504
2017-07-25T06:18:45.033Z,1668
2017-07-25T06:19:25.926Z,1752
2017-07-25T06:20:06.913Z,1760
2017-07-25T06:20:47.808Z,1676
2017-07-25T06:21:28.902Z,1600
2017-07-25T06:22:09.988Z,1696
2017-07-25T06:22:50.981Z,1816
2017-07-25T06:23:31.771Z,1896
2017-07-25T06:24:12.669Z,1940
2017-07-25T06:24:53.652Z,1932
2017-07-25T06:25:34.657Z,1804
2017-07-25T06:26:15.638Z,1644
2017-07-25T06:26:56.633Z,1488
2017-07-25T06:27:37.627Z,1356
2017-07-25T06:28:18.519Z,1396
2017-07-25T06:28:59.531Z,1492
2017-07-25T06:29:40.529Z,1648
2017-07-25T06:30:21.430Z,1768
2017-07-25T06:31:02.219Z,1940
2017-07-25T06:31:43.415Z,2096
2017-07-25T06:32:24.616Z,2232
2017-07-25T06:33:05.799Z,2196
2017-07-25T06:33:46.689Z,2272
2017-07-25T06:34:27.672Z,2404
2017-07-25T06:35:08.766Z,2516
2017-07-25T06:35:49.958Z,2572
2017-07-25T06:36:30.752Z,2608
2017-07-25T06:37:11.640Z,2596
2017-07-25T06:37:52.635Z,2516
2017-07-25T06:38:33.527Z,2460
2017-07-25T06:39:14.513Z,2376
2017-07-25T06:39:55.401Z,2224
2017-07-25T06:40:36.193Z,2024
2017-07-25T06:41:17.184Z,1872
2017-07-25T06:41:58.190Z,1888
2017-07-25T06:42:39.092Z,1900
2017-07-25T06:43:19.985Z,1840
2017-07-25T06:44:00.972Z,1704
2017-07-25T06:44:41.972Z,1600
2017-07-25T06:45:23.161Z,1740
2017-07-25T06:46:04.169Z,1812
2017-07-25T06:46:45.065Z,1972
2017-07-25T06:47:25.944Z,1984
2017-07-25T06:48:06.831Z,1972
2017-07-25T06:48:47.619Z,2008
2017-07-25T06:49:28.613Z,1932
2017-07-25T06:50:09.399Z,1772
2017-07-25T06:50:50.192Z,1588
2017-07-25T06:51:31.179Z,1504
2017-07-25T06:52:12.065Z,1540
2017-07-25T06:52:53.046Z,1612
2017-07-25T06:53:33.925Z,1660
2017-07-25T06:54:15.329Z,1784
2017-07-25T06:54:56.315Z,1856
2017-07-25T06:55:37.494Z,1920
2017-07-25T06:56:18.794Z,2096
2017-07-25T06:56:59.685Z,2192
2017-07-25T06:57:40.678Z,2160
2017-07-25T06:58:21.863Z,2280
2017-07-25T06:59:02.957Z,2376
2017-07-25T06:59:43.845Z,2280
2017-07-25T07:00:24.738Z,2460
2017-07-25T07:01:05.823Z,2224
2017-07-25T07:01:46.714Z,2144
2017-07-25T07:02:27.922Z,2100
2017-07-25T07:03:09.010Z,2248
2017-07-25T07:03:49.895Z,2280
2017-07-25T07:04:30.880Z,2252
2017-07-25T07:05:11.980Z,2352
2017-07-25T07:05:52.872Z,2432
2017-07-25T07:06:33.860Z,2256
2017-07-25T07:07:14.954Z,2088
2017-07-25T07:07:56.047Z,2516
2017-07-25T07:08:36.934Z,2440
2017-07-25T07:09:18.114Z,2380
2017-07-25T07:09:59.304Z,2032
2017-07-25T07:10:40.400Z,2228
2017-07-25T07:11:21.490Z,2124
2017-07-25T07:12:02.594Z,2220
2017-07-25T07:12:44.071Z,2092
2017-07-25T07:13:25.159Z,2180
2017-07-25T07:14:06.163Z,2044
2017-07-25T07:14:48.331Z,2068
2017-07-25T07:15:29.875Z,1864
2017-07-25T07:16:10.665Z,2060
2017-07-25T07:16:51.756Z,1816
2017-07-25T07:17:32.841Z,1840
2017-07-25T07:18:13.931Z,2012
2017-07-25T07:18:55.124Z,2112
2017-07-25T07:19:36.025Z,2072
2017-07-25T07:20:16.916Z,2024
2017-07-25T07:20:57.701Z,1932
2017-07-25T07:21:38.593Z,1832
2017-07-25T07:22:19.377Z,1680
2017-07-25T07:23:00.367Z,1652
2017-07-25T07:23:41.347Z,1548
2017-07-25T07:24:22.042Z,1516
2017-07-25T07:25:03.034Z,1540
2017-07-25T07:25:43.919Z,1700
2017-07-25T07:26:24.809Z,1912
2017-07-25T07:27:05.694Z,2044
2017-07-25T07:27:46.689Z,2324
2017-07-25T07:28:27.575Z,2840
2017-07-25T07:29:08.564Z,3168
2017-07-25T07:29:49.548Z,3360
2017-07-25T07:30:30.641Z,3412
2017-07-25T07:31:13.114Z,3676
2017-07-25T07:31:54.095Z,3796
2017-07-25T07:32:34.979Z,3568
2017-07-25T07:33:15.864Z,3360
2017-07-25T07:33:57.164Z,3452
2017-07-25T07:34:38.355Z,3796
2017-07-25T07:35:19.341Z,4140
2017-07-25T07:36:00.535Z,4408
2017-07-25T07:36:41.522Z,4564
2017-07-25T07:37:22.307Z,4720
2017-07-25T07:38:03.296Z,4780
2017-07-25T07:38:44.195Z,4872
2017-07-25T07:39:24.984Z,5116
2017-07-25T07:40:06.070Z,5348
2017-07-25T07:40:48.163Z,5572
2017-07-25T07:41:29.149Z,5720
2017-07-25T07:42:10.042Z,5804
2017-07-25T07:42:52.335Z,5928
2017-07-25T07:43:33.228Z,6044
2017-07-25T07:44:14.322Z,6124
2017-07-25T07:44:55.117Z,6216
2017-07-25T07:45:36.013Z,6020
2017-07-25T07:46:16.991Z,5500
2017-07-25T07:46:58.186Z,4456
2017-07-25T07:47:39.275Z,4036
2017-07-25T07:48:20.257Z,4212
2017-07-25T07:49:01.255Z,4632
2017-07-25T07:49:42.242Z,5104
2017-07-25T07:50:23.341Z,5352
2017-07-25T07:51:04.431Z,5936
2017-07-25T07:51:45.431Z,5472
2017-07-25T07:52:26.621Z,4896
2017-07-25T07:53:07.615Z,3976
2017-07-25T07:53:48.518Z,4372
2017-07-25T07:54:29.412Z,5284
2017-07-25T07:55:10.516Z,6212
2017-07-25T07:55:51.397Z,6384
2017-07-25T07:56:32.490Z,6332
2017-07-25T07:57:13.415Z,5440
2017-07-25T07:57:54.317Z,4328
2017-07-25T07:58:35.293Z,4024
2017-07-25T07:59:16.281Z,3520
2017-07-25T07:59:57.177Z,2680
2017-07-25T08:00:38.155Z,2580
2017-07-25T08:01:19.142Z,2840
2017-07-25T08:02:00.446Z,3196
2017-07-25T08:02:41.346Z,4068
2017-07-25T08:03:22.241Z,4284
2017-07-25T08:04:03.217Z,4608
2017-07-25T08:04:44.713Z,5552
2017-07-25T08:05:25.909Z,5712
2017-07-25T08:06:08.222Z,5840
2017-07-25T08:06:49.600Z,6264
2017-07-25T08:07:30.593Z,6340
2017-07-25T08:08:11.486Z,5996
2017-07-25T08:08:54.467Z,6476
2017-07-25T08:09:35.670Z,6296
2017-07-25T08:10:16.656Z,7264
2017-07-25T08:10:57.553Z,7236
2017-07-25T08:11:38.541Z,7300
2017-07-25T08:12:19.536Z,7224
2017-07-25T08:13:04.433Z,7036
2017-07-25T08:13:45.427Z,6636
2017-07-25T08:14:26.520Z,5844
2017-07-25T08:15:07.431Z,4808
2017-07-25T08:15:49.623Z,5096
2017-07-25T08:16:30.526Z,6028
2017-07-25T08:17:11.427Z,5600
2017-07-25T08:17:52.319Z,6480
2017-07-25T08:18:33.305Z,7912
2017-07-25T08:19:14.300Z,8308
2017-07-25T08:19:56.481Z,7636
2017-07-25T08:20:37.497Z,6744
2017-07-25T08:21:18.466Z,6460
2017-07-25T08:22:00.254Z,7804
2017-07-25T08:22:41.747Z,8160
2017-07-25T08:23:22.868Z,8312
2017-07-25T08:24:03.764Z,8116
2017-07-25T08:24:44.860Z,7660
2017-07-25T08:25:25.651Z,8076
2017-07-25T08:26:06.750Z,7656
2017-07-25T08:26:47.949Z,7144
2017-07-25T08:27:29.044Z,7836
2017-07-25T08:28:10.031Z,8088
2017-07-25T08:28:50.928Z,7556
2017-07-25T08:29:31.915Z,7388
2017-07-25T08:30:13.104Z,7044
2017-07-25T08:30:54.087Z,6756
2017-07-25T08:31:35.083Z,6232
2017-07-25T08:32:16.084Z,5580
2017-07-25T08:32:57.172Z,6076
2017-07-25T08:33:38.172Z,5016
2017-07-25T08:34:19.162Z,4552
2017-07-25T08:35:00.151Z,4864
2017-07-25T08:35:41.145Z,4548
2017-07-25T08:36:22.140Z,4364
2017-07-25T08:37:03.130Z,4340
2017-07-25T08:37:44.037Z,4892
2017-07-25T08:38:24.836Z,5416
2017-07-25T08:39:05.835Z,5712
2017-07-25T08:39:46.976Z,5324
2017-07-25T08:40:27.968Z,4652
2017-07-25T08:41:08.858Z,3864
2017-07-25T08:41:49.757Z,3688
2017-07-25T08:42:32.209Z,4912
2017-07-25T08:43:13.509Z,5168
2017-07-25T08:43:54.496Z,5368
2017-07-25T08:44:35.485Z,5888
2017-07-25T08:45:16.682Z,5844
2017-07-25T08:45:57.376Z,5264
2017-07-25T08:46:38.363Z,3920
2017-07-25T08:47:19.450Z,5076
2017-07-25T08:48:00.355Z,3740
2017-07-25T08:48:41.449Z,3524
2017-07-25T08:49:22.345Z,3288
2017-07-25T08:50:03.239Z,4416
2017-07-25T08:50:44.335Z,6556
2017-07-25T08:51:25.322Z,6152
2017-07-25T08:52:06.209Z,4472
2017-07-25T08:52:47.904Z,3852
2017-07-25T08:53:28.793Z,4364
2017-07-25T08:54:09.889Z,3724
2017-07-25T08:54:50.890Z,3148
2017-07-25T08:55:31.885Z,3596
2017-07-25T08:56:12.769Z,3440
2017-07-25T08:56:54.067Z,3056
2017-07-25T08:57:34.966Z,3524
2017-07-25T08:58:15.952Z,3832
2017-07-25T08:58:56.954Z,4004
2017-07-25T08:59:37.849Z,3584
2017-07-25T09:00:18.849Z,4832
2017-07-25T09:01:03.235Z,5344
2017-07-25T09:01:44.429Z,5752
2017-07-25T09:02:25.329Z,6604
2017-07-25T09:03:06.221Z,7752
2017-07-25T09:03:47.115Z,7948
2017-07-25T09:04:28.308Z,7476
2017-07-25T09:05:09.198Z,4564
2017-07-25T09:05:50.202Z,5152
2017-07-25T09:06:31.292Z,4396
2017-07-25T09:07:12.394Z,4252
2017-07-25T09:07:53.383Z,3548
2017-07-25T09:08:34.377Z,3624
2017-07-25T09:09:15.379Z,3224
2017-07-25T09:09:57.015Z,4704
2017-07-25T09:10:38.001Z,5960
2017-07-25T09:11:18.992Z,6520
2017-07-25T09:11:59.885Z,6828
2017-07-25T09:12:40.878Z,6028
2017-07-25T09:13:21.770Z,6252
2017-07-25T09:14:02.655Z,6640
2017-07-25T09:14:43.650Z,7324
2017-07-25T09:15:24.539Z,8232
2017-07-25T09:16:05.629Z,9256
2017-07-25T09:16:46.522Z,9056
2017-07-25T09:17:27.412Z,6256
2017-07-25T09:18:08.411Z,6488
2017-07-25T09:18:49.307Z,5776
2017-07-25T09:19:30.286Z,7052
2017-07-25T09:20:11.280Z,7516
2017-07-25T09:20:52.276Z,7064
2017-07-25T09:21:33.285Z,7380
2017-07-25T09:22:14.275Z,6884
2017-07-25T09:22:55.176Z,4464
2017-07-25T09:23:36.263Z,3192
2017-07-25T09:24:17.164Z,2896
2017-07-25T09:24:58.061Z,1584
2017-07-25T09:25:39.145Z,1152
2017-07-25T09:26:20.045Z,1180
2017-07-25T09:27:01.232Z,1328
2017-07-25T09:27:42.227Z,1552
2017-07-25T09:28:23.419Z,2820
2017-07-25T09:29:04.514Z,3692
2017-07-25T09:29:45.610Z,4096
2017-07-25T09:30:26.505Z,4560
2017-07-25T09:31:07.410Z,4828
2017-07-25T09:31:48.400Z,4904
2017-07-25T09:32:29.405Z,4872